sensor_id;sensor_type;location;lat;lon;timestamp;temperature;humidity
652;DHT22;310;48.490;9.200;2022-11-15T00:00:32;14.00;37.30
652;DHT22;310;48.490;9.200;2022-11-15T00:02:58;13.30;38.00
652;DHT22;310;48.490;9.200;2022-11-15T00:05:24;12.80;40.50
652;DHT22;310;48.490;9.200;2022-11-15T00:07:50;12.00;41.70
652;DHT22;310;48.490;9.200;2022-11-15T00:10:15;11.90;42.00
652;DHT22;310;48.490;9.200;2022-11-15T00:12:41;11.90;42.00
652;DHT22;310;48.490;9.200;2022-11-15T00:15:07;11.90;41.80
652;DHT22;310;48.490;9.200;2022-11-15T00:17:33;11.50;42.60
652;DHT22;310;48.490;9.200;2022-11-15T00:19:58;10.90;45.60
652;DHT22;310;48.490;9.200;2022-11-15T00:22:24;10.80;46.50
652;DHT22;310;48.490;9.200;2022-11-15T00:24:49;11.40;46.50
652;DHT22;310;48.490;9.200;2022-11-15T00:27:15;11.30;45.10
652;DHT22;310;48.490;9.200;2022-11-15T00:29:40;11.50;44.00
652;DHT22;310;48.490;9.200;2022-11-15T00:32:10;11.50;44.10
652;DHT22;310;48.490;9.200;2022-11-15T00:34:35;11.70;43.40
652;DHT22;310;48.490;9.200;2022-11-15T00:37:01;11.70;43.30
652;DHT22;310;48.490;9.200;2022-11-15T00:39:27;11.60;43.40
652;DHT22;310;48.490;9.200;2022-11-15T00:41:52;11.50;43.90
652;DHT22;310;48.490;9.200;2022-11-15T00:44:18;11.60;43.00
652;DHT22;310;48.490;9.200;2022-11-15T00:46:43;11.60;42.90
652;DHT22;310;48.490;9.200;2022-11-15T00:49:09;11.60;43.30
652;DHT22;310;48.490;9.200;2022-11-15T00:51:35;11.50;43.10
652;DHT22;310;48.490;9.200;2022-11-15T00:54:00;11.50;43.20
652;DHT22;310;48.490;9.200;2022-11-15T00:56:26;11.50;43.00
652;DHT22;310;48.490;9.200;2022-11-15T00:58:52;11.60;42.70
652;DHT22;310;48.490;9.200;2022-11-15T01:01:18;11.50;42.70
652;DHT22;310;48.490;9.200;2022-11-15T01:03:43;11.60;42.60
652;DHT22;310;48.490;9.200;2022-11-15T01:06:09;11.50;42.60
652;DHT22;310;48.490;9.200;2022-11-15T01:08:35;11.30;42.90
652;DHT22;310;48.490;9.200;2022-11-15T01:11:10;11.30;42.90
652;DHT22;310;48.490;9.200;2022-11-15T01:13:37;11.30;43.20
652;DHT22;310;48.490;9.200;2022-11-15T01:16:14;11.20;43.30
652;DHT22;310;48.490;9.200;2022-11-15T01:18:42;11.20;43.30
652;DHT22;310;48.490;9.200;2022-11-15T01:21:14;11.40;43.80
652;DHT22;310;48.490;9.200;2022-11-15T01:23:40;11.30;43.70
652;DHT22;310;48.490;9.200;2022-11-15T01:26:09;10.80;44.80
652;DHT22;310;48.490;9.200;2022-11-15T01:28:37;10.70;45.40
652;DHT22;310;48.490;9.200;2022-11-15T01:31:05;10.70;45.30
652;DHT22;310;48.490;9.200;2022-11-15T01:33:34;10.80;45.40
652;DHT22;310;48.490;9.200;2022-11-15T01:36:05;10.90;45.00
652;DHT22;310;48.490;9.200;2022-11-15T01:38:31;10.90;44.50
652;DHT22;310;48.490;9.200;2022-11-15T01:40:57;10.90;43.60
652;DHT22;310;48.490;9.200;2022-11-15T01:43:34;10.90;43.90
652;DHT22;310;48.490;9.200;2022-11-15T01:48:45;10.90;43.80
652;DHT22;310;48.490;9.200;2022-11-15T01:51:12;10.90;43.50
652;DHT22;310;48.490;9.200;2022-11-15T01:53:41;10.90;43.80
652;DHT22;310;48.490;9.200;2022-11-15T01:56:11;10.90;43.60
652;DHT22;310;48.490;9.200;2022-11-15T01:58:38;10.90;43.50
652;DHT22;310;48.490;9.200;2022-11-15T02:01:05;10.80;44.00
652;DHT22;310;48.490;9.200;2022-11-15T02:03:37;10.90;43.40
652;DHT22;310;48.490;9.200;2022-11-15T02:06:05;10.80;43.70
652;DHT22;310;48.490;9.200;2022-11-15T02:08:31;10.80;43.50
652;DHT22;310;48.490;9.200;2022-11-15T02:10:56;10.70;43.90
652;DHT22;310;48.490;9.200;2022-11-15T02:13:22;11.00;44.10
652;DHT22;310;48.490;9.200;2022-11-15T02:18:49;10.60;44.20
652;DHT22;310;48.490;9.200;2022-11-15T02:24:16;9.70;50.00
652;DHT22;310;48.490;9.200;2022-11-15T02:32:20;10.40;46.30
652;DHT22;310;48.490;9.200;2022-11-15T02:37:44;10.60;45.90
652;DHT22;310;48.490;9.200;2022-11-15T02:40:33;10.70;45.70
652;DHT22;310;48.490;9.200;2022-11-15T02:43:10;10.70;45.60
652;DHT22;310;48.490;9.200;2022-11-15T02:48:37;10.80;44.90
652;DHT22;310;48.490;9.200;2022-11-15T02:51:03;10.70;45.80
652;DHT22;310;48.490;9.200;2022-11-15T02:53:29;10.60;46.00
652;DHT22;310;48.490;9.200;2022-11-15T02:55:56;10.60;46.10
652;DHT22;310;48.490;9.200;2022-11-15T03:01:24;9.80;50.00
652;DHT22;310;48.490;9.200;2022-11-15T03:06:46;9.70;51.50
652;DHT22;310;48.490;9.200;2022-11-15T03:12:13;9.10;54.90
652;DHT22;310;48.490;9.200;2022-11-15T03:17:32;10.10;49.60
652;DHT22;310;48.490;9.200;2022-11-15T03:20:00;10.20;48.80
652;DHT22;310;48.490;9.200;2022-11-15T03:22:29;10.50;48.20
652;DHT22;310;48.490;9.200;2022-11-15T03:24:59;10.70;47.40
652;DHT22;310;48.490;9.200;2022-11-15T03:27:31;11.10;46.30
652;DHT22;310;48.490;9.200;2022-11-15T03:30:02;10.50;47.20
652;DHT22;310;48.490;9.200;2022-11-15T03:32:31;9.70;53.10
652;DHT22;310;48.490;9.200;2022-11-15T03:35:04;9.30;54.00
652;DHT22;310;48.490;9.200;2022-11-15T03:37:45;9.40;54.40
652;DHT22;310;48.490;9.200;2022-11-15T03:40:14;9.70;52.80
652;DHT22;310;48.490;9.200;2022-11-15T03:42:48;9.60;52.70
652;DHT22;310;48.490;9.200;2022-11-15T03:45:28;9.80;51.70
652;DHT22;310;48.490;9.200;2022-11-15T03:48:10;10.20;48.80
652;DHT22;310;48.490;9.200;2022-11-15T03:50:37;10.30;47.60
652;DHT22;310;48.490;9.200;2022-11-15T03:53:02;10.00;48.60
652;DHT22;310;48.490;9.200;2022-11-15T03:55:28;9.90;49.50
652;DHT22;310;48.490;9.200;2022-11-15T03:57:58;10.10;48.70
652;DHT22;310;48.490;9.200;2022-11-15T04:00:24;10.10;48.20
652;DHT22;310;48.490;9.200;2022-11-15T04:02:50;10.00;47.90
652;DHT22;310;48.490;9.200;2022-11-15T04:05:16;10.00;48.00
652;DHT22;310;48.490;9.200;2022-11-15T04:07:41;10.00;47.50
652;DHT22;310;48.490;9.200;2022-11-15T04:10:09;9.60;49.60
652;DHT22;310;48.490;9.200;2022-11-15T04:12:38;9.60;51.10
652;DHT22;310;48.490;9.200;2022-11-15T04:15:08;9.80;49.40
652;DHT22;310;48.490;9.200;2022-11-15T04:17:40;10.00;47.30
652;DHT22;310;48.490;9.200;2022-11-15T04:20:12;10.20;46.80
652;DHT22;310;48.490;9.200;2022-11-15T04:22:58;10.10;46.40
652;DHT22;310;48.490;9.200;2022-11-15T04:25:43;10.10;46.00
652;DHT22;310;48.490;9.200;2022-11-15T04:28:09;10.10;46.00
652;DHT22;310;48.490;9.200;2022-11-15T04:30:35;10.10;46.10
652;DHT22;310;48.490;9.200;2022-11-15T04:33:01;10.20;45.50
652;DHT22;310;48.490;9.200;2022-11-15T04:35:27;10.30;45.20
652;DHT22;310;48.490;9.200;2022-11-15T04:37:53;10.40;45.20
652;DHT22;310;48.490;9.200;2022-11-15T04:40:19;10.20;45.20
652;DHT22;310;48.490;9.200;2022-11-15T04:42:44;10.30;45.30
652;DHT22;310;48.490;9.200;2022-11-15T04:45:10;10.30;45.50
652;DHT22;310;48.490;9.200;2022-11-15T04:47:36;10.20;45.70
652;DHT22;310;48.490;9.200;2022-11-15T04:50:02;10.30;46.00
652;DHT22;310;48.490;9.200;2022-11-15T04:52:28;10.30;45.80
652;DHT22;310;48.490;9.200;2022-11-15T04:54:53;10.30;45.30
652;DHT22;310;48.490;9.200;2022-11-15T04:57:19;10.40;45.30
652;DHT22;310;48.490;9.200;2022-11-15T04:59:45;10.30;45.40
652;DHT22;310;48.490;9.200;2022-11-15T05:02:10;10.30;45.50
652;DHT22;310;48.490;9.200;2022-11-15T05:04:36;10.40;44.80
652;DHT22;310;48.490;9.200;2022-11-15T05:07:02;10.30;45.20
652;DHT22;310;48.490;9.200;2022-11-15T05:09:29;10.30;45.30
652;DHT22;310;48.490;9.200;2022-11-15T05:11:55;10.20;45.60
652;DHT22;310;48.490;9.200;2022-11-15T05:14:20;10.30;45.70
652;DHT22;310;48.490;9.200;2022-11-15T05:16:46;10.30;45.60
652;DHT22;310;48.490;9.200;2022-11-15T05:19:11;10.30;46.00
652;DHT22;310;48.490;9.200;2022-11-15T05:21:37;10.20;46.00
652;DHT22;310;48.490;9.200;2022-11-15T05:24:03;10.10;46.70
652;DHT22;310;48.490;9.200;2022-11-15T05:26:29;10.20;46.80
652;DHT22;310;48.490;9.200;2022-11-15T05:28:56;10.70;46.50
652;DHT22;310;48.490;9.200;2022-11-15T05:31:22;10.30;46.70
652;DHT22;310;48.490;9.200;2022-11-15T05:33:49;10.40;46.60
652;DHT22;310;48.490;9.200;2022-11-15T05:36:33;10.10;46.90
652;DHT22;310;48.490;9.200;2022-11-15T05:39:01;9.90;49.50
652;DHT22;310;48.490;9.200;2022-11-15T05:44:07;10.10;47.70
652;DHT22;310;48.490;9.200;2022-11-15T05:46:33;10.20;47.40
652;DHT22;310;48.490;9.200;2022-11-15T05:48:59;10.50;46.90
652;DHT22;310;48.490;9.200;2022-11-15T05:51:27;10.50;46.40
652;DHT22;310;48.490;9.200;2022-11-15T05:53:56;10.60;46.50
652;DHT22;310;48.490;9.200;2022-11-15T05:56:23;10.60;45.80
652;DHT22;310;48.490;9.200;2022-11-15T05:58:49;10.60;45.90
652;DHT22;310;48.490;9.200;2022-11-15T06:01:16;10.50;46.10
652;DHT22;310;48.490;9.200;2022-11-15T06:03:42;10.00;47.30
652;DHT22;310;48.490;9.200;2022-11-15T06:06:07;10.00;48.00
652;DHT22;310;48.490;9.200;2022-11-15T06:08:33;10.20;47.10
652;DHT22;310;48.490;9.200;2022-11-15T06:11:04;10.10;47.30
652;DHT22;310;48.490;9.200;2022-11-15T06:13:30;10.20;47.20
652;DHT22;310;48.490;9.200;2022-11-15T06:15:56;10.10;47.10
652;DHT22;310;48.490;9.200;2022-11-15T06:18:22;10.20;47.10
652;DHT22;310;48.490;9.200;2022-11-15T06:20:47;10.00;48.00
652;DHT22;310;48.490;9.200;2022-11-15T06:23:13;10.10;47.60
652;DHT22;310;48.490;9.200;2022-11-15T06:25:39;10.30;47.30
652;DHT22;310;48.490;9.200;2022-11-15T06:28:04;10.20;47.40
652;DHT22;310;48.490;9.200;2022-11-15T06:30:30;10.30;47.90
652;DHT22;310;48.490;9.200;2022-11-15T06:33:03;10.30;48.40
652;DHT22;310;48.490;9.200;2022-11-15T06:35:29;10.40;48.20
652;DHT22;310;48.490;9.200;2022-11-15T06:37:55;10.80;47.30
652;DHT22;310;48.490;9.200;2022-11-15T06:40:21;10.80;47.10
652;DHT22;310;48.490;9.200;2022-11-15T06:42:46;10.30;48.50
652;DHT22;310;48.490;9.200;2022-11-15T06:45:12;9.60;51.70
652;DHT22;310;48.490;9.200;2022-11-15T06:47:47;9.60;52.70
652;DHT22;310;48.490;9.200;2022-11-15T06:50:13;10.00;50.00
652;DHT22;310;48.490;9.200;2022-11-15T06:52:39;10.50;48.60
652;DHT22;310;48.490;9.200;2022-11-15T06:55:05;10.90;47.70
652;DHT22;310;48.490;9.200;2022-11-15T06:57:30;11.20;46.20
652;DHT22;310;48.490;9.200;2022-11-15T06:59:57;11.40;46.30
652;DHT22;310;48.490;9.200;2022-11-15T07:02:23;11.80;45.80
652;DHT22;310;48.490;9.200;2022-11-15T07:04:48;12.00;43.30
652;DHT22;310;48.490;9.200;2022-11-15T07:07:14;12.30;45.10
652;DHT22;310;48.490;9.200;2022-11-15T07:09:39;12.70;44.40
652;DHT22;310;48.490;9.200;2022-11-15T07:12:05;12.50;45.10
652;DHT22;310;48.490;9.200;2022-11-15T07:14:31;12.40;44.30
652;DHT22;310;48.490;9.200;2022-11-15T07:16:57;12.20;44.50
652;DHT22;310;48.490;9.200;2022-11-15T07:19:22;12.80;44.70
652;DHT22;310;48.490;9.200;2022-11-15T07:21:48;12.60;43.40
652;DHT22;310;48.490;9.200;2022-11-15T07:24:13;12.40;42.80
652;DHT22;310;48.490;9.200;2022-11-15T07:26:39;12.50;43.00
652;DHT22;310;48.490;9.200;2022-11-15T07:29:04;12.90;43.10
652;DHT22;310;48.490;9.200;2022-11-15T07:31:30;12.70;42.10
652;DHT22;310;48.490;9.200;2022-11-15T07:34:00;12.30;42.80
652;DHT22;310;48.490;9.200;2022-11-15T07:36:26;12.50;42.20
652;DHT22;310;48.490;9.200;2022-11-15T07:38:51;12.70;41.60
652;DHT22;310;48.490;9.200;2022-11-15T07:41:17;12.80;41.10
652;DHT22;310;48.490;9.200;2022-11-15T07:43:42;13.20;41.20
652;DHT22;310;48.490;9.200;2022-11-15T07:46:08;13.30;40.40
652;DHT22;310;48.490;9.200;2022-11-15T07:48:38;13.70;38.60
652;DHT22;310;48.490;9.200;2022-11-15T07:51:06;13.80;38.40
652;DHT22;310;48.490;9.200;2022-11-15T07:53:31;14.10;38.10
652;DHT22;310;48.490;9.200;2022-11-15T07:55:57;14.10;37.10
652;DHT22;310;48.490;9.200;2022-11-15T07:58:22;14.20;38.80
652;DHT22;310;48.490;9.200;2022-11-15T08:00:48;14.40;36.40
652;DHT22;310;48.490;9.200;2022-11-15T08:03:15;14.20;36.80
652;DHT22;310;48.490;9.200;2022-11-15T08:05:42;14.30;37.90
652;DHT22;310;48.490;9.200;2022-11-15T08:08:10;14.50;37.70
652;DHT22;310;48.490;9.200;2022-11-15T08:10:36;14.50;37.50
652;DHT22;310;48.490;9.200;2022-11-15T08:13:08;14.50;36.50
652;DHT22;310;48.490;9.200;2022-11-15T08:15:34;14.80;36.40
652;DHT22;310;48.490;9.200;2022-11-15T08:18:09;15.40;36.60
652;DHT22;310;48.490;9.200;2022-11-15T08:20:35;14.90;36.80
652;DHT22;310;48.490;9.200;2022-11-15T08:23:02;14.90;36.90
652;DHT22;310;48.490;9.200;2022-11-15T08:25:29;14.90;36.90
652;DHT22;310;48.490;9.200;2022-11-15T08:27:58;15.30;37.30
652;DHT22;310;48.490;9.200;2022-11-15T08:30:24;14.90;36.90
652;DHT22;310;48.490;9.200;2022-11-15T08:32:51;14.70;38.00
652;DHT22;310;48.490;9.200;2022-11-15T08:35:17;14.70;36.70
652;DHT22;310;48.490;9.200;2022-11-15T08:37:43;14.30;36.30
652;DHT22;310;48.490;9.200;2022-11-15T08:40:09;12.90;40.60
652;DHT22;310;48.490;9.200;2022-11-15T08:42:35;11.90;44.10
652;DHT22;310;48.490;9.200;2022-11-15T08:45:02;11.50;46.00
652;DHT22;310;48.490;9.200;2022-11-15T08:47:27;11.20;47.80
652;DHT22;310;48.490;9.200;2022-11-15T08:49:53;11.10;48.70
652;DHT22;310;48.490;9.200;2022-11-15T08:52:18;11.80;48.50
652;DHT22;310;48.490;9.200;2022-11-15T08:54:44;11.90;46.60
652;DHT22;310;48.490;9.200;2022-11-15T08:57:10;11.90;46.90
652;DHT22;310;48.490;9.200;2022-11-15T08:59:36;11.40;48.40
652;DHT22;310;48.490;9.200;2022-11-15T09:02:02;11.40;50.20
652;DHT22;310;48.490;9.200;2022-11-15T09:04:28;11.10;50.90
652;DHT22;310;48.490;9.200;2022-11-15T09:06:54;11.10;51.50
652;DHT22;310;48.490;9.200;2022-11-15T09:09:20;11.00;52.30
652;DHT22;310;48.490;9.200;2022-11-15T09:11:45;11.10;53.10
652;DHT22;310;48.490;9.200;2022-11-15T09:14:12;12.30;49.80
652;DHT22;310;48.490;9.200;2022-11-15T09:16:38;11.90;48.10
652;DHT22;310;48.490;9.200;2022-11-15T09:19:04;12.00;47.20
652;DHT22;310;48.490;9.200;2022-11-15T09:21:30;12.40;48.20
652;DHT22;310;48.490;9.200;2022-11-15T09:23:55;12.10;47.90
652;DHT22;310;48.490;9.200;2022-11-15T09:26:21;12.60;46.40
652;DHT22;310;48.490;9.200;2022-11-15T09:28:47;12.50;47.70
652;DHT22;310;48.490;9.200;2022-11-15T09:31:12;12.10;49.20
652;DHT22;310;48.490;9.200;2022-11-15T09:33:38;11.70;51.30
652;DHT22;310;48.490;9.200;2022-11-15T09:36:08;11.60;52.30
652;DHT22;310;48.490;9.200;2022-11-15T09:38:34;12.00;51.20
652;DHT22;310;48.490;9.200;2022-11-15T09:49:21;12.40;49.40
652;DHT22;310;48.490;9.200;2022-11-15T09:51:49;12.50;49.00
652;DHT22;310;48.490;9.200;2022-11-15T10:00:02;12.20;51.00
652;DHT22;310;48.490;9.200;2022-11-15T10:05:47;12.40;50.80
652;DHT22;310;48.490;9.200;2022-11-15T10:11:07;12.60;51.00
652;DHT22;310;48.490;9.200;2022-11-15T10:13:35;12.70;50.00
652;DHT22;310;48.490;9.200;2022-11-15T10:19:20;14.20;45.00
652;DHT22;310;48.490;9.200;2022-11-15T10:24:42;14.60;43.30
652;DHT22;310;48.490;9.200;2022-11-15T10:27:13;14.50;43.10
652;DHT22;310;48.490;9.200;2022-11-15T10:29:45;14.60;43.30
652;DHT22;310;48.490;9.200;2022-11-15T10:32:12;14.60;43.10
652;DHT22;310;48.490;9.200;2022-11-15T10:34:38;14.50;43.10
652;DHT22;310;48.490;9.200;2022-11-15T10:37:04;14.50;43.30
652;DHT22;310;48.490;9.200;2022-11-15T10:39:29;14.30;44.00
652;DHT22;310;48.490;9.200;2022-11-15T10:41:55;14.30;44.00
652;DHT22;310;48.490;9.200;2022-11-15T10:44:26;13.80;45.40
652;DHT22;310;48.490;9.200;2022-11-15T10:49:25;14.10;45.20
652;DHT22;310;48.490;9.200;2022-11-15T10:54:39;14.70;43.60
652;DHT22;310;48.490;9.200;2022-11-15T10:57:13;15.10;42.90
652;DHT22;310;48.490;9.200;2022-11-15T10:59:46;15.60;41.90
652;DHT22;310;48.490;9.200;2022-11-15T11:02:35;15.80;40.00
652;DHT22;310;48.490;9.200;2022-11-15T11:05:04;16.00;39.30
652;DHT22;310;48.490;9.200;2022-11-15T11:07:33;15.30;40.90
652;DHT22;310;48.490;9.200;2022-11-15T11:10:00;15.60;40.80
652;DHT22;310;48.490;9.200;2022-11-15T11:12:32;15.30;40.80
652;DHT22;310;48.490;9.200;2022-11-15T11:14:59;14.80;43.20
652;DHT22;310;48.490;9.200;2022-11-15T11:23:26;15.00;42.20
652;DHT22;310;48.490;9.200;2022-11-15T11:31:23;15.20;42.40
652;DHT22;310;48.490;9.200;2022-11-15T11:36:55;14.90;42.00
652;DHT22;310;48.490;9.200;2022-11-15T11:45:19;16.00;40.40
652;DHT22;310;48.490;9.200;2022-11-15T11:48:12;16.30;38.90
652;DHT22;310;48.490;9.200;2022-11-15T11:50:39;16.50;38.40
652;DHT22;310;48.490;9.200;2022-11-15T11:53:14;16.40;38.20
652;DHT22;310;48.490;9.200;2022-11-15T11:55:47;16.20;38.60
652;DHT22;310;48.490;9.200;2022-11-15T12:00:56;16.30;38.20
652;DHT22;310;48.490;9.200;2022-11-15T12:03:48;16.40;38.30
652;DHT22;310;48.490;9.200;2022-11-15T12:06:27;16.40;38.30
652;DHT22;310;48.490;9.200;2022-11-15T12:12:12;16.10;39.40
652;DHT22;310;48.490;9.200;2022-11-15T12:14:46;15.70;40.00
652;DHT22;310;48.490;9.200;2022-11-15T12:17:13;15.50;40.30
652;DHT22;310;48.490;9.200;2022-11-15T12:19:41;15.80;40.00
652;DHT22;310;48.490;9.200;2022-11-15T12:24:54;16.00;38.70
652;DHT22;310;48.490;9.200;2022-11-15T12:27:42;15.80;39.20
652;DHT22;310;48.490;9.200;2022-11-15T12:30:17;15.80;39.30
652;DHT22;310;48.490;9.200;2022-11-15T12:32:58;16.30;38.70
652;DHT22;310;48.490;9.200;2022-11-15T12:35:39;16.80;39.10
652;DHT22;310;48.490;9.200;2022-11-15T12:38:10;17.20;38.70
652;DHT22;310;48.490;9.200;2022-11-15T12:43:44;17.20;38.00
652;DHT22;310;48.490;9.200;2022-11-15T12:48:50;17.20;37.00
652;DHT22;310;48.490;9.200;2022-11-15T12:51:16;17.20;36.80
652;DHT22;310;48.490;9.200;2022-11-15T12:53:42;17.30;37.60
652;DHT22;310;48.490;9.200;2022-11-15T12:58:59;17.60;36.60
652;DHT22;310;48.490;9.200;2022-11-15T13:12:01;17.60;35.60
652;DHT22;310;48.490;9.200;2022-11-15T13:14:54;17.20;36.40
652;DHT22;310;48.490;9.200;2022-11-15T13:27:53;17.30;36.90
652;DHT22;310;48.490;9.200;2022-11-15T13:30:25;17.40;37.30
652;DHT22;310;48.490;9.200;2022-11-15T13:32:51;17.50;36.80
652;DHT22;310;48.490;9.200;2022-11-15T13:35:28;17.50;36.30
652;DHT22;310;48.490;9.200;2022-11-15T13:38:03;17.50;36.70
652;DHT22;310;48.490;9.200;2022-11-15T13:40:35;16.70;37.30
652;DHT22;310;48.490;9.200;2022-11-15T13:43:26;17.00;39.20
652;DHT22;310;48.490;9.200;2022-11-15T13:49:01;17.40;37.60
652;DHT22;310;48.490;9.200;2022-11-15T13:51:42;17.40;38.90
652;DHT22;310;48.490;9.200;2022-11-15T13:54:19;17.50;40.00
652;DHT22;310;48.490;9.200;2022-11-15T13:56:50;17.70;39.50
652;DHT22;310;48.490;9.200;2022-11-15T13:59:24;17.90;39.30
652;DHT22;310;48.490;9.200;2022-11-15T14:01:52;17.70;40.60
652;DHT22;310;48.490;9.200;2022-11-15T14:04:20;17.20;43.00
652;DHT22;310;48.490;9.200;2022-11-15T14:06:50;16.90;44.30
652;DHT22;310;48.490;9.200;2022-11-15T14:11:55;17.10;43.20
652;DHT22;310;48.490;9.200;2022-11-15T14:14:24;17.30;43.00
652;DHT22;310;48.490;9.200;2022-11-15T14:16:55;17.30;42.80
652;DHT22;310;48.490;9.200;2022-11-15T14:22:22;17.40;43.80
652;DHT22;310;48.490;9.200;2022-11-15T14:27:38;17.60;42.50
652;DHT22;310;48.490;9.200;2022-11-15T14:30:04;17.50;44.10
652;DHT22;310;48.490;9.200;2022-11-15T14:32:49;17.40;43.90
652;DHT22;310;48.490;9.200;2022-11-15T14:35:20;17.30;42.80
652;DHT22;310;48.490;9.200;2022-11-15T14:37:46;16.80;44.60
652;DHT22;310;48.490;9.200;2022-11-15T14:40:18;16.80;45.80
652;DHT22;310;48.490;9.200;2022-11-15T14:42:45;17.10;45.00
652;DHT22;310;48.490;9.200;2022-11-15T14:45:21;16.90;45.90
652;DHT22;310;48.490;9.200;2022-11-15T14:47:47;17.00;45.80
652;DHT22;310;48.490;9.200;2022-11-15T14:50:15;16.50;44.90
652;DHT22;310;48.490;9.200;2022-11-15T14:52:42;16.30;46.00
652;DHT22;310;48.490;9.200;2022-11-15T14:55:16;16.20;46.00
652;DHT22;310;48.490;9.200;2022-11-15T14:57:42;16.60;46.30
652;DHT22;310;48.490;9.200;2022-11-15T15:00:08;16.90;45.90
652;DHT22;310;48.490;9.200;2022-11-15T15:02:35;17.00;45.20
652;DHT22;310;48.490;9.200;2022-11-15T15:05:01;16.80;46.30
652;DHT22;310;48.490;9.200;2022-11-15T15:07:28;16.70;45.60
652;DHT22;310;48.490;9.200;2022-11-15T15:09:54;16.60;46.70
652;DHT22;310;48.490;9.200;2022-11-15T15:12:21;16.70;47.20
652;DHT22;310;48.490;9.200;2022-11-15T15:14:49;17.00;46.30
652;DHT22;310;48.490;9.200;2022-11-15T15:17:16;16.80;46.50
652;DHT22;310;48.490;9.200;2022-11-15T15:19:42;16.90;46.30
652;DHT22;310;48.490;9.200;2022-11-15T15:22:13;17.00;46.30
652;DHT22;310;48.490;9.200;2022-11-15T15:24:39;17.00;46.20
652;DHT22;310;48.490;9.200;2022-11-15T15:27:04;16.70;47.20
652;DHT22;310;48.490;9.200;2022-11-15T15:29:30;16.70;48.50
652;DHT22;310;48.490;9.200;2022-11-15T15:31:55;16.60;48.00
652;DHT22;310;48.490;9.200;2022-11-15T15:34:21;16.30;49.30
652;DHT22;310;48.490;9.200;2022-11-15T15:36:47;16.30;50.10
652;DHT22;310;48.490;9.200;2022-11-15T15:39:12;16.40;49.70
652;DHT22;310;48.490;9.200;2022-11-15T15:41:38;16.30;49.40
652;DHT22;310;48.490;9.200;2022-11-15T15:44:03;16.40;50.30
652;DHT22;310;48.490;9.200;2022-11-15T15:46:29;16.40;49.80
652;DHT22;310;48.490;9.200;2022-11-15T15:48:55;16.20;50.80
652;DHT22;310;48.490;9.200;2022-11-15T15:51:20;16.60;50.00
652;DHT22;310;48.490;9.200;2022-11-15T15:53:47;16.60;49.10
652;DHT22;310;48.490;9.200;2022-11-15T15:56:13;16.40;50.00
652;DHT22;310;48.490;9.200;2022-11-15T15:58:38;16.60;49.30
652;DHT22;310;48.490;9.200;2022-11-15T16:01:04;16.60;48.70
652;DHT22;310;48.490;9.200;2022-11-15T16:03:30;16.60;49.00
652;DHT22;310;48.490;9.200;2022-11-15T16:05:56;16.70;48.80
652;DHT22;310;48.490;9.200;2022-11-15T16:08:24;16.40;48.80
652;DHT22;310;48.490;9.200;2022-11-15T16:10:51;16.30;48.80
652;DHT22;310;48.490;9.200;2022-11-15T16:13:17;16.40;48.30
652;DHT22;310;48.490;9.200;2022-11-15T16:15:43;16.50;48.50
652;DHT22;310;48.490;9.200;2022-11-15T16:18:15;16.60;47.80
652;DHT22;310;48.490;9.200;2022-11-15T16:20:44;16.60;47.40
652;DHT22;310;48.490;9.200;2022-11-15T16:23:17;16.60;47.40
652;DHT22;310;48.490;9.200;2022-11-15T16:25:51;16.50;47.80
652;DHT22;310;48.490;9.200;2022-11-15T16:28:23;16.60;45.30
652;DHT22;310;48.490;9.200;2022-11-15T16:30:58;16.50;47.10
652;DHT22;310;48.490;9.200;2022-11-15T16:33:24;16.40;47.90
652;DHT22;310;48.490;9.200;2022-11-15T16:35:49;16.30;48.10
652;DHT22;310;48.490;9.200;2022-11-15T16:38:16;16.00;48.80
652;DHT22;310;48.490;9.200;2022-11-15T16:40:42;16.30;48.40
652;DHT22;310;48.490;9.200;2022-11-15T16:43:09;16.10;48.60
652;DHT22;310;48.490;9.200;2022-11-15T16:45:35;15.70;50.60
652;DHT22;310;48.490;9.200;2022-11-15T16:48:01;15.50;52.70
652;DHT22;310;48.490;9.200;2022-11-15T16:50:28;15.20;55.00
652;DHT22;310;48.490;9.200;2022-11-15T16:52:56;15.10;56.30
652;DHT22;310;48.490;9.200;2022-11-15T16:55:25;15.20;55.90
652;DHT22;310;48.490;9.200;2022-11-15T16:57:51;14.90;57.20
652;DHT22;310;48.490;9.200;2022-11-15T17:00:17;14.80;57.80
652;DHT22;310;48.490;9.200;2022-11-15T17:02:48;14.80;58.40
652;DHT22;310;48.490;9.200;2022-11-15T17:05:18;14.80;57.10
652;DHT22;310;48.490;9.200;2022-11-15T17:07:47;14.90;56.80
652;DHT22;310;48.490;9.200;2022-11-15T17:10:19;15.10;55.10
652;DHT22;310;48.490;9.200;2022-11-15T17:12:45;14.90;56.30
652;DHT22;310;48.490;9.200;2022-11-15T17:15:12;14.60;58.10
652;DHT22;310;48.490;9.200;2022-11-15T17:17:39;14.60;57.50
652;DHT22;310;48.490;9.200;2022-11-15T17:20:06;14.40;59.00
652;DHT22;310;48.490;9.200;2022-11-15T17:22:35;14.60;56.90
652;DHT22;310;48.490;9.200;2022-11-15T17:25:01;14.50;57.20
652;DHT22;310;48.490;9.200;2022-11-15T17:27:27;14.70;55.60
652;DHT22;310;48.490;9.200;2022-11-15T17:29:52;15.20;51.70
652;DHT22;310;48.490;9.200;2022-11-15T17:32:18;15.20;51.40
652;DHT22;310;48.490;9.200;2022-11-15T17:34:44;15.50;49.60
652;DHT22;310;48.490;9.200;2022-11-15T17:37:09;15.30;50.20
652;DHT22;310;48.490;9.200;2022-11-15T17:39:35;15.10;50.20
652;DHT22;310;48.490;9.200;2022-11-15T17:42:00;15.00;51.20
652;DHT22;310;48.490;9.200;2022-11-15T17:44:26;15.00;50.00
652;DHT22;310;48.490;9.200;2022-11-15T17:46:51;15.10;49.50
652;DHT22;310;48.490;9.200;2022-11-15T17:49:17;15.00;49.70
652;DHT22;310;48.490;9.200;2022-11-15T17:51:43;15.20;47.60
652;DHT22;310;48.490;9.200;2022-11-15T17:54:09;15.00;47.50
652;DHT22;310;48.490;9.200;2022-11-15T17:56:38;15.20;48.20
652;DHT22;310;48.490;9.200;2022-11-15T17:59:04;15.30;46.40
652;DHT22;310;48.490;9.200;2022-11-15T18:01:32;15.30;45.90
652;DHT22;310;48.490;9.200;2022-11-15T18:03:59;15.00;45.90
652;DHT22;310;48.490;9.200;2022-11-15T18:06:27;14.90;46.30
652;DHT22;310;48.490;9.200;2022-11-15T18:08:55;15.10;46.20
652;DHT22;310;48.490;9.200;2022-11-15T18:11:23;15.30;44.70
652;DHT22;310;48.490;9.200;2022-11-15T18:13:53;15.00;45.40
652;DHT22;310;48.490;9.200;2022-11-15T18:16:21;15.10;44.70
652;DHT22;310;48.490;9.200;2022-11-15T18:18:47;15.10;44.60
652;DHT22;310;48.490;9.200;2022-11-15T18:23:44;15.00;44.60
652;DHT22;310;48.490;9.200;2022-11-15T18:26:15;15.10;45.30
652;DHT22;310;48.490;9.200;2022-11-15T18:28:44;15.00;43.50
652;DHT22;310;48.490;9.200;2022-11-15T18:31:25;15.20;44.00
652;DHT22;310;48.490;9.200;2022-11-15T18:33:51;15.60;42.60
652;DHT22;310;48.490;9.200;2022-11-15T18:36:22;15.30;42.40
652;DHT22;310;48.490;9.200;2022-11-15T18:38:53;15.40;41.90
652;DHT22;310;48.490;9.200;2022-11-15T18:41:19;15.60;41.60
652;DHT22;310;48.490;9.200;2022-11-15T18:43:49;15.50;42.30
652;DHT22;310;48.490;9.200;2022-11-15T18:46:17;15.60;42.10
652;DHT22;310;48.490;9.200;2022-11-15T18:48:44;15.50;41.50
652;DHT22;310;48.490;9.200;2022-11-15T18:51:16;15.30;42.10
652;DHT22;310;48.490;9.200;2022-11-15T18:53:42;15.50;42.10
652;DHT22;310;48.490;9.200;2022-11-15T18:56:10;15.70;41.60
652;DHT22;310;48.490;9.200;2022-11-15T18:58:38;15.60;41.20